Aalen-Heidenheim/Elchingen Airport EDPA

Flugplatz Daten

Name: Aalen-Heidenheim/Elchingen Airport

Ident: EDPA

Lat: 48,77777863

Long: 10,26472187

Platzhöhe: 1916 ft

IataCode:

City: Aalen

Metar

2021/05/09 12:00
CYHA 091200Z 08006KT 1 1/4SM -SN OVC014 M01/M01 A3012 RMK SN2ST6 SN COV/MEDPACK SLP204

Taf

Gewünschte Webcam nicht vorhanden? Dann fügen Sie eine hinzu. Sie wird dann so schnell wie möglich freigeschaltet
Url: Title: